Time;durP1;ratioP1;P1;durP2;ratioP2;P2;SDS_P1;SDS_P2;PMS_P1;PMS_P2;Temp;Humidity;BMP_temperature;BMP_pressure;BME280_temperature;BME280_humidity;BME280_pressure;Samples;Min_cycle;Max_cycle;Signal;HPM_P1;HPM_P2
2022/01/30 00:00:12;;;;;;;28.73;16.85;;;;;;;-1.64;78.29;98134.75;4765731;30;20042;-57
2022/01/30 00:02:38;;;;;;;23.38;15.60;;;;;;;-1.42;78.38;98144.09;4780301;30;20067;-59
2022/01/30 00:05:05;;;;;;;27.33;16.80;;;;;;;-1.48;77.75;98143.25;4781601;30;20186;-57
2022/01/30 00:07:31;;;;;;;33.05;18.48;;;;;;;-1.56;77.32;98139.00;4781581;30;20089;-58
2022/01/30 00:09:56;;;;;;;27.83;16.92;;;;;;;-1.74;78.42;98136.41;4781455;30;20043;-57
2022/01/30 00:12:30;;;;;;;27.83;18.23;;;;;;;-1.57;77.34;98144.94;4780436;30;20027;-57
2022/01/30 00:14:56;;;;;;;29.25;16.95;;;;;;;-1.59;77.81;98139.00;4781439;30;20035;-57
2022/01/30 00:17:29;;;;;;;27.38;16.63;;;;;;;-1.56;77.50;98133.09;4781404;30;20110;-58
2022/01/30 00:20:02;;;;;;;33.22;18.67;;;;;;;-1.53;77.09;98135.63;4780990;30;20039;-58
2022/01/30 00:25:02;;;;;;;29.83;16.92;;;;;;;-1.78;78.77;98130.50;4780905;30;20056;-56
2022/01/30 00:27:32;;;;;;;27.92;16.65;;;;;;;-1.93;78.95;98125.38;4765447;30;20355;-56
2022/01/30 00:29:58;;;;;;;28.42;16.67;;;;;;;-1.79;79.35;98127.97;4782313;30;20043;-56
2022/01/30 00:32:24;;;;;;;30.27;16.92;;;;;;;-1.86;78.66;98116.13;4780940;30;20334;-57
2022/01/30 00:34:50;;;;;;;26.45;16.02;;;;;;;-1.90;78.49;98115.25;4780904;30;20095;-58
2022/01/30 00:37:16;;;;;;;25.67;15.35;;;;;;;-1.82;78.65;98110.22;4781136;30;20614;-57
2022/01/30 00:39:42;;;;;;;25.73;15.10;;;;;;;-1.69;79.22;98106.84;4779723;30;20028;-57
2022/01/30 00:42:08;;;;;;;28.90;14.93;;;;;;;-1.77;78.48;98106.84;4780907;30;20077;-58
2022/01/30 00:44:34;;;;;;;25.20;15.15;;;;;;;-1.84;78.64;98089.03;4780944;30;20031;-58
2022/01/30 00:47:02;;;;;;;23.25;15.15;;;;;;;-1.82;78.23;98072.16;4779844;30;20217;-58
2022/01/30 00:49:28;;;;;;;24.58;14.38;;;;;;;-1.66;78.15;98078.09;4779905;30;20111;-58
2022/01/30 00:51:54;;;;;;;23.17;14.07;;;;;;;-1.75;78.58;98061.16;4768915;30;20034;-57
2022/01/30 00:54:19;;;;;;;21.75;13.07;;;;;;;-1.76;77.01;98056.94;4789417;30;20042;-57
2022/01/30 00:56:45;;;;;;;21.20;11.40;;;;;;;-1.85;78.11;98047.63;4781181;30;20055;-58
2022/01/30 00:59:10;;;;;;;15.30;10.27;;;;;;;-1.84;76.15;98056.06;4780661;30;20040;-58
2022/01/30 01:01:36;;;;;;;12.18;8.55;;;;;;;-1.84;75.36;98056.06;4779467;30;20043;-57
2022/01/30 01:04:02;;;;;;;12.88;8.50;;;;;;;-1.81;76.22;98048.44;4780383;30;20040;-58
2022/01/30 01:06:27;;;;;;;11.25;8.30;;;;;;;-1.76;75.54;98046.78;4764649;30;20189;-56
2022/01/30 01:09:00;;;;;;;11.40;8.15;;;;;;;-1.79;75.29;98045.06;4780385;30;20062;-56
2022/01/30 01:11:55;;;;;;;11.45;7.95;;;;;;;-1.70;74.97;98041.69;4783212;30;20050;-57
2022/01/30 01:25:09;;;;;;;8.02;6.13;;;;;;;-1.95;72.20;98021.38;4779113;30;20244;-57
2022/01/30 01:27:35;;;;;;;7.55;5.47;;;;;;;-1.85;73.85;98019.72;4780068;30;20031;-57
2022/01/30 01:30:01;;;;;;;6.22;4.90;;;;;;;-1.98;72.37;98023.06;4779289;30;20054;-57
2022/01/30 01:32:26;;;;;;;9.10;5.65;;;;;;;-1.87;74.27;98023.09;4764007;30;20035;-58
2022/01/30 01:34:52;;;;;;;9.02;6.20;;;;;;;-1.90;74.46;98013.78;4780231;30;20082;-57
2022/01/30 01:37:17;;;;;;;7.32;5.07;;;;;;;-1.95;72.46;98008.69;4779941;30;20028;-57
2022/01/30 01:39:43;;;;;;;7.07;5.15;;;;;;;-2.23;72.40;97995.13;4779882;30;20043;-57
2022/01/30 01:42:09;;;;;;;7.13;4.78;;;;;;;-1.98;72.16;98002.75;4779915;30;20050;-56
2022/01/30 01:44:43;;;;;;;7.97;4.95;;;;;;;-1.93;72.52;98004.47;4779939;30;20040;-56
2022/01/30 01:47:11;;;;;;;6.93;4.78;;;;;;;-1.88;73.69;98001.09;4779867;30;20039;-58
2022/01/30 01:49:38;;;;;;;7.10;5.03;;;;;;;-1.93;72.19;98003.63;4778778;30;20103;-57
2022/01/30 01:55:02;;;;;;;9.02;5.22;;;;;;;-2.15;72.40;97995.13;4779835;30;20031;-58
2022/01/30 01:57:28;;;;;;;9.98;5.10;;;;;;;-2.09;73.01;97993.47;4778187;30;20097;-58
2022/01/30 01:59:56;;;;;;;8.38;5.07;;;;;;;-2.38;72.89;97987.47;4779490;30;20261;-58
2022/01/30 02:02:23;;;;;;;6.57;4.90;;;;;;;-2.38;72.91;97980.75;4779705;30;20062;-58
2022/01/30 02:04:49;;;;;;;8.00;5.50;;;;;;;-2.33;73.04;97989.19;4779710;30;20039;-57
2022/01/30 02:10:02;;;;;;;8.35;4.85;;;;;;;-2.35;73.06;97980.75;4779465;30;20351;-58
2022/01/30 02:12:37;;;;;;;5.63;4.13;;;;;;;-2.40;72.87;97986.63;4759135;30;20222;-59
2022/01/30 02:26:00;;;;;;;5.55;3.47;;;;;;;-2.32;73.16;97954.56;4779122;30;20039;-58
2022/01/30 02:28:28;;;;;;;5.30;3.95;;;;;;;-2.40;73.28;97949.47;4779222;30;20321;-57
2022/01/30 02:31:01;;;;;;;6.28;3.78;;;;;;;-2.46;73.20;97952.81;4778274;30;20229;-58
2022/01/30 02:33:26;;;;;;;4.50;3.45;;;;;;;-2.61;73.77;97940.97;4779130;30;20051;-57
2022/01/30 02:35:52;;;;;;;5.05;3.03;;;;;;;-2.54;74.29;97939.28;4786658;30;20042;-57
2022/01/30 02:38:25;;;;;;;4.05;3.40;;;;;;;-2.73;73.56;97886.91;4768601;30;20028;-57
2022/01/30 02:40:54;;;;;;;7.07;3.67;;;;;;;-2.62;73.64;97910.56;4769666;30;20562;-57
2022/01/30 02:43:24;;;;;;;4.93;3.40;;;;;;;-2.67;74.27;97920.66;4777619;30;20063;-57
2022/01/30 02:46:22;;;;;;;5.85;3.42;;;;;;;-2.37;74.30;97920.75;4779096;30;20031;-57
2022/01/30 02:48:55;;;;;;;5.22;3.58;;;;;;;-2.48;73.50;97905.50;4789409;30;20259;-57
2022/01/30 02:51:22;;;;;;;4.88;3.70;;;;;;;-2.58;73.41;97899.56;4778156;30;20075;-57
2022/01/30 02:54:02;;;;;;;5.15;3.55;;;;;;;-2.69;73.14;97907.16;4779958;30;20040;-56
2022/01/30 02:56:28;;;;;;;4.93;3.97;;;;;;;-2.57;73.47;97908.03;4778275;30;20028;-58
2022/01/30 02:58:54;;;;;;;5.60;3.70;;;;;;;-2.71;73.32;97911.38;4778624;30;20083;-57
2022/01/30 03:01:19;;;;;;;5.63;3.10;;;;;;;-2.81;73.63;97891.91;4778583;30;20202;-57
2022/01/30 03:03:45;;;;;;;4.22;3.40;;;;;;;-2.78;74.15;97899.53;4778400;30;20036;-57
2022/01/30 03:06:10;;;;;;;4.35;3.67;;;;;;;-2.85;74.03;97905.41;4762431;30;20097;-57
2022/01/30 03:08:36;;;;;;;4.10;3.42;;;;;;;-2.69;74.60;97912.22;4778551;30;20120;-58
2022/01/30 03:11:01;;;;;;;4.65;3.65;;;;;;;-2.80;74.26;97896.16;4778491;30;20079;-57
2022/01/30 03:13:27;;;;;;;4.70;4.03;;;;;;;-2.78;74.30;97904.59;4778101;30;20102;-57
2022/01/30 03:15:52;;;;;;;5.50;3.75;;;;;;;-2.70;74.94;97900.41;4777487;30;20039;-57
2022/01/30 03:18:18;;;;;;;4.72;3.95;;;;;;;-2.64;74.47;97897.03;4778591;30;20032;-56
2022/01/30 03:20:43;;;;;;;4.90;3.47;;;;;;;-2.55;74.90;97893.66;4778838;30;20044;-56
2022/01/30 03:23:09;;;;;;;4.80;3.28;;;;;;;-2.73;74.68;97890.25;4778575;30;20055;-55
2022/01/30 03:25:34;;;;;;;4.60;3.42;;;;;;;-2.73;75.34;97890.25;4777939;30;20044;-56
2022/01/30 03:28:01;;;;;;;4.55;3.38;;;;;;;-2.84;75.76;97895.28;4778483;30;20099;-57
2022/01/30 03:30:30;;;;;;;4.45;3.20;;;;;;;-2.72;75.83;97879.28;4778706;30;20119;-56
2022/01/30 03:32:56;;;;;;;4.45;3.13;;;;;;;-2.97;75.51;97870.78;4778557;30;20039;-57
2022/01/30 03:35:22;;;;;;;3.58;3.20;;;;;;;-3.08;76.39;97874.97;4762572;30;20043;-57
2022/01/30 03:37:48;;;;;;;4.90;3.40;;;;;;;-2.95;76.07;97879.22;4778565;30;20035;-56
2022/01/30 03:40:14;;;;;;;4.93;3.40;;;;;;;-2.87;76.98;97879.25;4778668;30;20107;-57
2022/01/30 03:42:40;;;;;;;4.32;3.80;;;;;;;-2.86;76.71;97868.28;4777464;30;20104;-58
2022/01/30 03:45:06;;;;;;;4.22;3.45;;;;;;;-2.91;75.84;97857.28;4778733;30;20039;-57
2022/01/30 03:47:32;;;;;;;3.72;3.40;;;;;;;-2.71;75.50;97865.75;4778591;30;20054;-57
2022/01/30 03:49:57;;;;;;;4.15;3.28;;;;;;;-2.76;77.05;97852.25;4778319;30;20052;-58
2022/01/30 03:52:23;;;;;;;8.05;4.25;;;;;;;-2.79;76.39;97852.25;4777735;30;20043;-58
2022/01/30 03:54:49;;;;;;;5.30;3.90;;;;;;;-2.70;76.68;97859.88;4777332;30;20154;-58
2022/01/30 03:57:14;;;;;;;6.72;4.22;;;;;;;-2.77;76.43;97842.97;4780967;30;20224;-56
2022/01/30 03:59:40;;;;;;;5.30;4.00;;;;;;;-2.78;76.87;97841.28;4781472;30;20032;-57
2022/01/30 04:02:05;;;;;;;5.18;3.45;;;;;;;-3.02;77.05;97839.53;4765669;30;20344;-56
2022/01/30 04:04:32;;;;;;;4.18;3.45;;;;;;;-2.87;77.01;97834.50;4782536;30;20047;-56
2022/01/30 04:06:59;;;;;;;16.67;8.68;;;;;;;-3.06;76.66;97823.50;4781617;30;20081;-56
2022/01/30 04:09:26;;;;;;;5.75;3.95;;;;;;;-2.98;77.42;97826.91;4781587;30;20078;-56
2022/01/30 04:11:52;;;;;;;5.93;3.83;;;;;;;-2.85;76.75;97822.69;4781292;30;20050;-56
2022/01/30 04:14:18;;;;;;;4.30;3.70;;;;;;;-2.88;76.14;97816.78;4781028;30;20036;-59
2022/01/30 04:16:44;;;;;;;5.22;3.58;;;;;;;-2.97;76.87;97812.53;4780542;30;20059;-57
2022/01/30 04:19:10;;;;;;;4.75;3.40;;;;;;;-3.00;77.27;97804.94;4780420;30;20320;-57
2022/01/30 04:21:36;;;;;;;4.45;3.72;;;;;;;-3.09;78.21;97802.38;4780398;30;20038;-57
2022/01/30 04:24:02;;;;;;;6.28;3.97;;;;;;;-2.89;78.09;97804.94;4780520;30;20129;-55
2022/01/30 04:26:27;;;;;;;4.82;3.35;;;;;;;-2.97;77.91;97804.94;4781170;30;20094;-58
2022/01/30 04:28:53;;;;;;;5.30;3.47;;;;;;;-2.92;78.07;97810.00;4780747;30;20039;-58
2022/01/30 04:31:19;;;;;;;3.95;3.55;;;;;;;-2.85;77.72;97809.19;4780928;30;20111;-58
2022/01/30 04:33:45;;;;;;;4.45;3.70;;;;;;;-2.84;77.92;97808.34;4781780;30;20153;-56
2022/01/30 04:36:15;;;;;;;5.43;3.88;;;;;;;-2.87;78.23;97809.19;4779558;30;20059;-56
2022/01/30 04:41:32;;;;;;;5.30;3.63;;;;;;;-3.03;78.02;97808.31;4780672;30;20316;-57
2022/01/30 04:52:37;;;;;;;6.22;4.32;;;;;;;-2.79;78.07;97781.34;4784398;30;20045;-56
2022/01/30 05:03:07;;;;;;;4.65;3.80;;;;;;;-2.75;77.20;97770.38;4780479;30;20039;-57
2022/01/30 05:08:05;;;;;;;4.65;3.75;;;;;;;-2.81;77.79;97761.09;4780291;30;20221;-56
2022/01/30 05:10:31;;;;;;;4.35;3.63;;;;;;;-2.83;77.37;97754.31;4781279;30;20039;-56
2022/01/30 05:12:59;;;;;;;5.50;3.70;;;;;;;-3.00;77.13;97762.72;4780128;30;20267;-57
2022/01/30 05:15:27;;;;;;;4.15;3.65;;;;;;;-2.88;78.51;97756.00;4779138;30;20324;-56
2022/01/30 05:17:53;;;;;;;4.97;4.00;;;;;;;-3.15;78.30;97757.63;4780328;30;20115;-56
2022/01/30 05:20:19;;;;;;;7.32;4.53;;;;;;;-2.97;78.56;97767.78;4764476;30;20093;-56
2022/01/30 05:22:45;;;;;;;7.70;4.47;;;;;;;-2.96;77.76;97741.63;4780400;30;20198;-55
2022/01/30 05:25:11;;;;;;;4.80;3.80;;;;;;;-2.68;78.31;97764.47;4779840;30;20043;-55
2022/01/30 05:27:37;;;;;;;5.45;4.05;;;;;;;-2.84;78.25;97756.00;4780194;30;20356;-55
2022/01/30 05:30:04;;;;;;;4.72;3.95;;;;;;;-2.81;77.41;97752.63;4780014;30;20046;-55
2022/01/30 05:32:29;;;;;;;5.05;3.55;;;;;;;-2.89;77.67;97756.81;4780176;30;20050;-57
2022/01/30 05:34:56;;;;;;;4.93;4.03;;;;;;;-2.77;77.77;97749.25;4778786;30;20102;-57
2022/01/30 05:37:22;;;;;;;6.18;4.40;;;;;;;-2.71;77.31;97751.78;4776989;30;20291;-55
2022/01/30 05:39:48;;;;;;;5.25;3.85;;;;;;;-2.63;77.50;97750.09;4762943;30;20039;-55
2022/01/30 05:42:14;;;;;;;5.43;4.32;;;;;;;-2.57;76.93;97745.88;4779783;30;20051;-56
2022/01/30 05:44:51;;;;;;;5.18;3.85;;;;;;;-2.69;76.20;97751.81;4785424;30;20090;-56
2022/01/30 05:47:29;;;;;;;4.97;4.20;;;;;;;-3.06;76.96;97684.25;4788436;30;20212;-56
2022/01/30 05:49:54;;;;;;;4.43;3.83;;;;;;;-2.80;77.05;97734.88;4778668;30;20036;-55
2022/01/30 05:52:22;;;;;;;6.63;4.50;;;;;;;-2.73;76.23;97739.97;4780630;30;20040;-56
2022/01/30 05:54:48;;;;;;;4.53;3.67;;;;;;;-2.58;77.10;97739.13;4778671;30;20031;-56
2022/01/30 05:57:14;;;;;;;4.82;3.70;;;;;;;-2.54;76.13;97743.34;4779825;30;20036;-57
2022/01/30 05:59:39;;;;;;;4.10;3.55;;;;;;;-2.96;77.21;97728.97;4779669;30;20190;-56
2022/01/30 06:02:04;;;;;;;4.60;4.10;;;;;;;-2.96;77.33;97726.44;4780448;30;20047;-57
2022/01/30 06:04:30;;;;;;;4.97;3.60;;;;;;;-2.98;77.89;97730.69;4779215;30;20032;-57
2022/01/30 06:06:57;;;;;;;4.85;3.85;;;;;;;-3.01;77.59;97720.53;4777898;30;20043;-57
2022/01/30 06:09:23;;;;;;;5.05;3.92;;;;;;;-2.74;78.13;97734.03;4778288;30;20031;-57
2022/01/30 06:11:50;;;;;;;4.43;3.40;;;;;;;-2.84;76.95;97724.75;4779263;30;20058;-57
2022/01/30 06:14:16;;;;;;;4.05;3.33;;;;;;;-2.97;77.31;97704.50;4765972;30;20411;-56
2022/01/30 06:16:43;;;;;;;4.85;3.70;;;;;;;-2.93;77.22;97720.53;4763269;30;20328;-56
2022/01/30 06:19:08;;;;;;;4.47;3.55;;;;;;;-2.70;76.98;97720.53;4776565;30;20051;-55
2022/01/30 06:21:34;;;;;;;4.40;3.55;;;;;;;-2.60;77.53;97722.22;4789503;30;20384;-57
2022/01/30 06:24:00;;;;;;;4.95;3.45;;;;;;;-2.49;77.23;97722.22;4762199;30;20293;-56
2022/01/30 06:26:25;;;;;;;5.20;3.72;;;;;;;-2.48;76.70;97715.44;4779263;30;20038;-56
2022/01/30 06:28:51;;;;;;;3.67;3.13;;;;;;;-2.97;76.87;97703.66;4778011;30;20035;-56
2022/01/30 06:31:16;;;;;;;4.53;3.50;;;;;;;-3.08;77.82;97708.72;4763178;30;20066;-56
2022/01/30 06:33:43;;;;;;;3.35;3.05;;;;;;;-2.93;77.24;97694.41;4777757;30;20039;-57
2022/01/30 06:36:09;;;;;;;3.42;3.13;;;;;;;-2.76;77.14;97707.88;4779947;30;20388;-56
2022/01/30 06:38:34;;;;;;;3.65;2.90;;;;;;;-3.07;77.40;97707.03;4763872;30;20067;-55
2022/01/30 06:41:00;;;;;;;4.03;2.90;;;;;;;-3.01;77.89;97710.41;4761589;30;20086;-56
2022/01/30 06:43:25;;;;;;;4.50;3.35;;;;;;;-2.88;77.76;97712.94;4778806;30;20027;-57
2022/01/30 06:45:51;;;;;;;4.20;3.00;;;;;;;-2.84;78.23;97719.69;4779396;30;20039;-56
2022/01/30 06:48:20;;;;;;;3.10;2.80;;;;;;;-2.70;78.10;97724.78;4794411;30;20039;-56
2022/01/30 06:50:46;;;;;;;3.45;2.67;;;;;;;-2.66;77.81;97713.78;4778459;30;20098;-57
2022/01/30 06:53:12;;;;;;;3.40;2.55;;;;;;;-2.68;77.75;97720.53;4775837;30;20043;-57
2022/01/30 06:55:42;;;;;;;3.20;2.63;;;;;;;-2.72;77.25;97719.72;4765993;30;20308;-57
2022/01/30 06:58:11;;;;;;;3.00;2.40;;;;;;;-2.56;77.46;97707.03;4779367;30;20275;-57
2022/01/30 07:00:37;;;;;;;4.53;2.78;;;;;;;-2.65;77.16;97712.94;4776719;30;20046;-56
2022/01/30 07:03:03;;;;;;;2.67;2.30;;;;;;;-2.86;76.85;97701.97;4784668;30;20271;-59
2022/01/30 07:05:28;;;;;;;4.68;2.78;;;;;;;-2.73;76.65;97710.41;4787532;30;20044;-56
2022/01/30 07:07:54;;;;;;;3.17;2.58;;;;;;;-2.80;77.71;97703.66;4778311;30;20047;-57
2022/01/30 07:10:21;;;;;;;3.35;2.50;;;;;;;-2.64;76.58;97702.81;4778291;30;20047;-57
2022/01/30 07:12:47;;;;;;;2.83;2.50;;;;;;;-2.85;76.65;97707.88;4794093;30;20395;-57
2022/01/30 07:15:14;;;;;;;3.53;2.72;;;;;;;-2.87;77.00;97707.03;4779136;30;20071;-57
2022/01/30 07:17:40;;;;;;;3.22;2.50;;;;;;;-2.91;77.44;97705.34;4778817;30;20051;-59
2022/01/30 07:20:06;;;;;;;3.00;2.53;;;;;;;-2.82;77.79;97696.06;4778449;30;20054;-57
2022/01/30 07:22:31;;;;;;;2.95;2.53;;;;;;;-2.68;76.82;97702.81;4778632;30;20039;-56
2022/01/30 07:24:57;;;;;;;2.67;2.03;;;;;;;-2.95;76.56;97700.28;4777326;30;20047;-57
2022/01/30 07:27:23;;;;;;;1.95;1.85;;;;;;;-2.95;77.97;97700.28;4778492;30;20035;-57
2022/01/30 07:29:49;;;;;;;2.00;1.80;;;;;;;-2.77;77.05;97711.25;4778974;30;20043;-57
2022/01/30 07:32:14;;;;;;;1.83;1.70;;;;;;;-2.60;77.28;97699.41;4780518;30;20039;-57
2022/01/30 07:34:41;;;;;;;3.08;1.83;;;;;;;-2.50;76.44;97697.72;4775653;30;20032;-58
2022/01/30 07:37:08;;;;;;;2.10;1.90;;;;;;;-2.61;75.95;97699.41;4782118;30;20095;-57
2022/01/30 07:39:36;;;;;;;2.33;1.80;;;;;;;-2.70;75.94;97690.13;4782022;30;20089;-56
2022/01/30 07:42:02;;;;;;;2.30;2.10;;;;;;;-2.62;76.37;97697.75;4783132;30;20036;-56
2022/01/30 07:44:28;;;;;;;2.20;1.98;;;;;;;-2.50;76.68;97695.19;4788158;30;20090;-56
2022/01/30 07:46:53;;;;;;;2.28;2.08;;;;;;;-2.54;75.72;97698.56;4787725;30;20225;-58
2022/01/30 07:49:19;;;;;;;2.20;2.00;;;;;;;-2.54;76.60;97692.66;4789139;30;20047;-57
2022/01/30 07:51:45;;;;;;;2.95;2.00;;;;;;;-2.38;75.97;97694.34;4783808;30;20063;-56
2022/01/30 07:54:10;;;;;;;2.22;2.00;;;;;;;-2.32;77.23;97691.78;4790366;29;20292;-56
2022/01/30 07:56:36;;;;;;;2.22;1.90;;;;;;;-2.39;76.34;97700.25;4781400;30;20046;-57
2022/01/30 07:59:01;;;;;;;2.13;1.92;;;;;;;-2.78;76.57;97674.09;4781414;30;20339;-57
2022/01/30 08:01:27;;;;;;;2.58;2.20;;;;;;;-2.66;76.62;97691.00;4765693;30;20332;-55
2022/01/30 08:03:52;;;;;;;3.05;2.38;;;;;;;-2.65;76.51;97680.00;4781455;30;20039;-56
2022/01/30 08:06:18;;;;;;;4.60;2.42;;;;;;;-2.86;78.05;97696.91;4780431;30;20043;-55
2022/01/30 08:08:43;;;;;;;2.90;2.30;;;;;;;-2.93;77.44;97685.09;4781533;30;20043;-56
2022/01/30 08:11:10;;;;;;;4.10;2.58;;;;;;;-2.80;78.15;97683.41;4781520;30;20043;-57
2022/01/30 08:13:35;;;;;;;4.07;2.10;;;;;;;-2.71;77.71;97693.50;4781631;30;20264;-58
2022/01/30 08:16:01;;;;;;;2.70;2.38;;;;;;;-3.00;77.57;97683.41;4780356;30;20032;-59
2022/01/30 08:18:27;;;;;;;3.30;2.72;;;;;;;-2.77;77.82;97688.47;4781569;30;20035;-57
2022/01/30 08:20:54;;;;;;;4.30;2.55;;;;;;;-2.67;76.00;97684.22;4781302;30;20047;-59
2022/01/30 08:23:22;;;;;;;2.50;2.30;;;;;;;-2.46;74.76;97688.44;4765148;30;20051;-58
2022/01/30 08:25:48;;;;;;;2.80;2.03;;;;;;;-2.82;74.02;97665.69;4781054;30;20036;-59
2022/01/30 08:28:13;;;;;;;2.45;2.22;;;;;;;-2.47;75.43;97682.50;4765650;30;20100;-58
2022/01/30 08:30:39;;;;;;;3.17;2.42;;;;;;;-2.47;73.94;97686.72;4777285;30;20055;-58
2022/01/30 08:33:04;;;;;;;3.70;2.15;;;;;;;-2.50;74.10;97681.69;4779526;30;20046;-58
2022/01/30 08:35:31;;;;;;;2.67;2.10;;;;;;;-2.54;74.12;97675.75;4779062;30;20299;-59
2022/01/30 08:37:58;;;;;;;2.90;2.28;;;;;;;-2.40;74.19;97672.38;4778658;30;20043;-57
2022/01/30 08:40:24;;;;;;;3.00;2.30;;;;;;;-2.55;72.63;97663.09;4778441;30;20043;-59
2022/01/30 08:42:50;;;;;;;2.90;2.42;;;;;;;-2.55;72.21;97670.69;4778104;30;20067;-58
2022/01/30 08:45:18;;;;;;;2.85;2.50;;;;;;;-2.33;72.81;97672.34;4779888;30;20048;-59
2022/01/30 08:47:45;;;;;;;2.53;1.77;;;;;;;-2.77;71.58;97612.47;4780863;30;20047;-58
2022/01/30 08:50:13;;;;;;;3.03;2.10;;;;;;;-2.48;70.68;97674.91;4780842;30;20046;-60
2022/01/30 08:52:42;;;;;;;3.03;2.20;;;;;;;-2.51;71.13;97664.78;4778947;30;20091;-62
2022/01/30 08:55:10;;;;;;;2.38;2.10;;;;;;;-2.56;71.06;97661.44;4789118;30;20031;-61
2022/01/30 08:57:36;;;;;;;5.75;2.33;;;;;;;-2.58;71.96;97678.31;4772981;30;20362;-59
2022/01/30 09:00:06;;;;;;;3.38;2.22;;;;;;;-2.87;72.29;97626.00;4787084;30;20044;-57
2022/01/30 09:02:32;;;;;;;2.38;2.15;;;;;;;-2.41;73.05;97665.59;4786807;30;20063;-58
2022/01/30 09:04:57;;;;;;;3.28;2.30;;;;;;;-2.30;73.10;97667.25;4788841;30;20043;-59
2022/01/30 09:07:23;;;;;;;2.60;2.13;;;;;;;-2.36;72.10;97674.06;4785855;30;20036;-59
2022/01/30 09:09:49;;;;;;;4.90;1.83;;;;;;;-2.88;72.80;97677.50;4783141;30;20232;-59
2022/01/30 09:12:14;;;;;;;2.20;1.70;;;;;;;-2.97;72.52;97663.97;4777967;30;20408;-59
2022/01/30 09:14:42;;;;;;;2.50;1.77;;;;;;;-2.87;73.16;97674.94;4780106;30;20309;-59
2022/01/30 09:17:12;;;;;;;2.00;1.80;;;;;;;-2.75;74.03;97648.78;4780200;30;20038;-60
2022/01/30 09:19:40;;;;;;;2.55;1.92;;;;;;;-2.64;73.75;97671.56;4780354;30;20035;-59
2022/01/30 09:22:07;;;;;;;2.47;1.67;;;;;;;-2.56;73.32;97676.63;4780307;30;20383;-60
2022/01/30 09:24:33;;;;;;;1.85;1.70;;;;;;;-2.53;73.89;97662.25;4764200;30;20062;-59
2022/01/30 09:26:58;;;;;;;1.73;1.58;;;;;;;-2.41;74.24;97666.44;4779016;30;20107;-60
2022/01/30 09:29:24;;;;;;;3.33;1.92;;;;;;;-2.66;72.71;97676.63;4761269;30;20156;-58
2022/01/30 09:31:50;;;;;;;2.42;1.70;;;;;;;-2.83;73.28;97658.09;4773869;30;20044;-58
2022/01/30 09:34:16;;;;;;;2.85;1.90;;;;;;;-2.53;73.08;97656.34;4778556;30;20062;-57
2022/01/30 09:36:41;;;;;;;2.90;1.98;;;;;;;-2.55;72.60;97661.41;4778715;30;20031;-57
2022/01/30 09:39:07;;;;;;;2.58;1.77;;;;;;;-2.79;72.56;97657.25;4779875;30;20036;-57
2022/01/30 09:41:34;;;;;;;2.40;1.95;;;;;;;-2.89;73.76;97602.34;4779733;30;20043;-58
2022/01/30 09:44:01;;;;;;;2.10;1.83;;;;;;;-2.69;74.04;97665.66;4763952;30;20320;-58
2022/01/30 09:46:32;;;;;;;3.20;2.40;;;;;;;-2.61;73.58;97656.34;4779696;30;20235;-57
2022/01/30 09:49:01;;;;;;;2.30;2.00;;;;;;;-2.68;73.66;97663.13;4779157;30;20054;-58
2022/01/30 09:51:27;;;;;;;3.80;2.40;;;;;;;-2.42;73.19;97644.50;4762570;30;20039;-57
2022/01/30 09:53:52;;;;;;;2.75;1.77;;;;;;;-2.37;73.16;97634.34;4781199;30;20040;-56
2022/01/30 09:56:19;;;;;;;3.58;2.10;;;;;;;-2.17;72.67;97630.03;4778542;30;20047;-57
2022/01/30 09:58:46;;;;;;;21.98;10.90;;;;;;;-1.97;72.77;97631.63;4763318;30;20396;-56
2022/01/30 10:01:11;;;;;;;2.40;2.20;;;;;;;-2.12;72.51;97619.88;4783869;30;20098;-56
2022/01/30 10:03:37;;;;;;;2.63;2.20;;;;;;;-1.80;71.96;97614.63;4773095;30;20031;-57
2022/01/30 10:06:16;;;;;;;3.35;1.83;;;;;;;-1.78;72.68;97602.78;4777965;30;20044;-58
2022/01/30 10:08:47;;;;;;;2.30;1.88;;;;;;;-1.78;71.30;97601.94;4779695;30;20031;-58
2022/01/30 10:11:41;;;;;;;2.33;1.88;;;;;;;-2.31;70.81;97541.38;4779092;30;20055;-58
2022/01/30 10:14:10;;;;;;;2.50;1.67;;;;;;;-2.18;71.75;97536.22;4762869;30;20039;-59
2022/01/30 10:16:44;;;;;;;4.35;1.90;;;;;;;-2.35;70.60;97536.31;4779018;30;20066;-57
2022/01/30 10:19:22;;;;;;;1.67;1.50;;;;;;;-2.33;70.35;97535.47;4779264;30;20027;-57
2022/01/30 10:22:09;;;;;;;2.03;1.77;;;;;;;-2.49;71.65;97536.41;4766814;30;20226;-57
2022/01/30 10:24:42;;;;;;;1.98;1.70;;;;;;;-2.72;71.78;97528.88;4763316;30;20053;-57
2022/01/30 10:27:21;;;;;;;2.08;1.80;;;;;;;-2.07;71.88;97595.31;4779007;30;20162;-58
2022/01/30 10:29:57;;;;;;;2.70;1.60;;;;;;;-2.42;71.39;97614.09;4778416;30;20142;-58
2022/01/30 10:32:23;;;;;;;3.00;1.80;;;;;;;-2.23;71.93;97597.09;4778173;30;20049;-57
2022/01/30 10:34:57;;;;;;;2.00;1.80;;;;;;;-2.00;71.38;97607.13;4778571;30;20043;-58
2022/01/30 10:37:24;;;;;;;3.15;2.42;;;;;;;-1.78;71.24;97579.97;4777930;30;20089;-57
2022/01/30 10:40:03;;;;;;;3.20;2.00;;;;;;;-1.51;71.33;97582.31;4779479;30;20031;-56
2022/01/30 10:42:57;;;;;;;2.63;2.03;;;;;;;-1.63;70.04;97573.91;4788688;30;20281;-58
2022/01/30 10:45:29;;;;;;;1.80;1.60;;;;;;;-2.19;70.20;97549.78;4777170;30;20124;-57
2022/01/30 10:48:13;;;;;;;3.55;1.98;;;;;;;-1.80;70.57;97590.97;4779905;30;20325;-57
2022/01/30 10:50:44;;;;;;;2.50;2.17;;;;;;;-1.71;70.17;97565.53;4761995;30;20055;-58
2022/01/30 10:53:26;;;;;;;2.25;1.92;;;;;;;-2.11;70.86;97581.84;4779748;30;20386;-58
2022/01/30 10:55:52;;;;;;;1.63;1.52;;;;;;;-1.86;70.21;97556.31;4761857;30;20112;-57
2022/01/30 10:58:20;;;;;;;2.38;1.95;;;;;;;-1.68;69.34;97570.59;4763181;30;20107;-58
2022/01/30 11:00:54;;;;;;;2.25;1.85;;;;;;;-1.86;70.09;97543.66;4778801;30;20110;-58
2022/01/30 11:03:45;;;;;;;2.05;1.88;;;;;;;-2.21;70.08;97476.25;4781815;30;20360;-58
2022/01/30 11:06:14;;;;;;;2.63;2.40;;;;;;;-1.76;70.20;97540.19;4783645;30;20142;-57
2022/01/30 11:08:43;;;;;;;2.33;2.13;;;;;;;-1.92;70.76;97536.91;4779783;30;20036;-58
2022/01/30 11:11:33;;;;;;;2.65;2.42;;;;;;;-2.17;70.62;97474.53;4766342;30;20039;-57
2022/01/30 11:14:03;;;;;;;3.63;2.03;;;;;;;-2.04;70.41;97526.84;4782229;30;20047;-57
2022/01/30 11:19:16;;;;;;;2.78;2.20;;;;;;;-2.47;69.85;97487.38;4786728;30;20297;-57
2022/01/30 11:21:43;;;;;;;3.03;1.90;;;;;;;-2.17;69.92;97523.53;4782900;30;20046;-58
2022/01/30 11:24:12;;;;;;;3.50;2.47;;;;;;;-2.20;70.67;97518.50;4779991;30;20074;-58
2022/01/30 11:26:38;;;;;;;2.72;2.20;;;;;;;-2.19;70.57;97515.13;4781038;30;20126;-58
2022/01/30 11:29:08;;;;;;;2.88;2.58;;;;;;;-1.97;69.79;97525.13;4788381;29;20321;-58
2022/01/30 11:31:34;;;;;;;2.83;2.30;;;;;;;-1.97;71.32;97513.28;4789903;30;20051;-56
2022/01/30 11:34:01;;;;;;;3.53;1.98;;;;;;;-2.26;71.11;97501.63;4785740;30;20065;-57
2022/01/30 11:36:27;;;;;;;2.63;2.28;;;;;;;-1.95;70.60;97508.22;4788492;29;20035;-57
2022/01/30 11:38:53;;;;;;;3.92;2.47;;;;;;;-1.76;71.09;97509.75;4786931;30;20092;-59
2022/01/30 11:41:20;;;;;;;4.28;2.35;;;;;;;-2.10;69.39;97477.00;4778086;30;20292;-58
2022/01/30 11:44:17;;;;;;;3.40;2.75;;;;;;;-1.98;70.40;97506.53;4762422;30;20039;-57
2022/01/30 11:46:52;;;;;;;2.70;2.42;;;;;;;-1.98;70.45;97505.66;4782029;30;20108;-56
2022/01/30 11:49:18;;;;;;;2.63;2.40;;;;;;;-1.83;70.36;97497.97;4791411;30;20039;-56
2022/01/30 11:51:54;;;;;;;4.65;2.25;;;;;;;-2.02;70.01;97492.19;4788807;30;20205;-56
2022/01/30 11:54:41;;;;;;;2.53;2.33;;;;;;;-2.53;70.40;97428.31;4787582;30;20227;-56
2022/01/30 11:57:20;;;;;;;4.10;2.60;;;;;;;-1.84;70.40;97490.38;4759550;30;20583;-57
2022/01/30 11:59:50;;;;;;;3.38;2.80;;;;;;;-2.04;70.03;97486.28;4781531;30;20052;-57
2022/01/30 12:02:44;;;;;;;13.13;7.53;;;;;;;-2.28;70.15;97427.28;4781367;30;20097;-56
2022/01/30 12:05:10;;;;;;;4.07;2.60;;;;;;;-1.69;70.45;97490.25;4781354;30;20122;-57
2022/01/30 12:07:51;;;;;;;4.88;2.60;;;;;;;-1.81;69.88;97486.13;4781289;30;20042;-56
2022/01/30 12:10:20;;;;;;;2.42;2.20;;;;;;;-1.91;69.12;97487.03;4780465;30;20051;-57
2022/01/30 12:12:49;;;;;;;3.05;2.60;;;;;;;-1.96;69.69;97492.13;4780037;30;20232;-57
2022/01/30 12:15:36;;;;;;;3.10;2.70;;;;;;;-1.94;70.49;97487.91;4780238;30;20040;-56
2022/01/30 12:18:19;;;;;;;3.97;2.60;;;;;;;-2.06;70.26;97472.78;4780070;30;20101;-57
2022/01/30 12:20:57;;;;;;;3.30;2.83;;;;;;;-1.97;71.01;97482.00;4788918;30;20039;-57
2022/01/30 12:23:28;;;;;;;3.50;3.05;;;;;;;-1.92;70.57;97498.03;4784469;30;20044;-57
2022/01/30 12:26:03;;;;;;;4.87;2.80;;;;;;;-1.94;70.27;97500.59;4783299;30;20397;-57
2022/01/30 12:28:45;;;;;;;4.38;2.80;;;;;;;-2.10;70.74;97484.63;4779882;30;20194;-58
2022/01/30 12:31:32;;;;;;;4.10;2.90;;;;;;;-2.22;69.95;97428.94;4783579;30;20044;-58